This is the latest recevied weather packets stored in our database for station/object DO1SC. If no packets are shown the sender has not sent any weather packets the latest 10 day(s).
| Time | Temp. | Humidity | Pressure | Rain* | Wind** | Luminosity | Snow |
|---|---|---|---|---|---|---|---|
| 1777511736 | 1.11° C | 55% | 1030.2 hPa | - | - | 0 W/m² | - |
| 1777511127 | 0.56° C | 57% | 1030.1 hPa | - | - | 0 W/m² | - |
| 1777510519 | 0.56° C | 58% | 1030.2 hPa | - | - | 0 W/m² | - |
| 1777509322 | 1.11° C | 56% | 1030.3 hPa | - | - | 0 W/m² | - |
| 1777508734 | 1.11° C | 56% | 1030.3 hPa | - | - | 0 W/m² | - |
| 1777508125 | 1.11° C | 55% | 1030.3 hPa | - | - | 0 W/m² | - |
| 1777507516 | 1.11° C | 55% | 1030.3 hPa | - | - | 0 W/m² | - |
| 1777506928 | 1.67° C | 55% | 1030.3 hPa | - | - | 0 W/m² | - |
| 1777503321 | 2.78° C | 51% | 1030.4 hPa | - | - | 0 W/m² | - |
| 1777498531 | 3.33° C | 51% | 1029.6 hPa | - | - | 0 W/m² | - |
| 1777491329 | 5° C | 45% | 1028.8 hPa | - | - | 0 W/m² | - |
| 1777490131 | 5.56° C | 44% | 1028.7 hPa | - | - | 0 W/m² | - |
| 1777483518 | 8.33° C | 36% | 1027.5 hPa | - | - | 23 W/m² | - |
| 1777482930 | 8.89° C | 36% | 1027.5 hPa | - | - | 27 W/m² | - |
| 1777480517 | 10° C | 34% | 1027.2 hPa | - | - | 68 W/m² | - |
| 1777478731 | 10° C | 35% | 1027 hPa | - | - | 95 W/m² | - |
| 1777475729 | 11.11° C | 35% | 1026.8 hPa | - | - | 281 W/m² | - |
| 1777470922 | 11.11° C | 35% | 1026.4 hPa | - | - | 515 W/m² | - |
| 1777467936 | 11.67° C | 38% | 1026.4 hPa | - | - | 602 W/m² | - |
| 1777463739 | 11.67° C | 35% | 1026.5 hPa | - | - | 660 W/m² | - |
| 1777462518 | 11.11° C | 35% | 1026.5 hPa | - | - | 669 W/m² | - |
| 1777461929 | 11.11° C | 38% | 1026.5 hPa | - | - | 667 W/m² | - |
| 1777461321 | 11.11° C | 40% | 1026.4 hPa | - | - | 668 W/m² | - |
| 1777458927 | 10.56° C | 36% | 1026.5 hPa | - | - | 661 W/m² | - |
| 1777457730 | 11.11° C | 35% | 1026.5 hPa | - | - | 649 W/m² | - |
* Rain since midnight (hover to see other rain measurements)
** Current wind speed in m/s (hover to see current wind gust speed)